Delta Hellas — SVAK8 — position and weather

sailwx.info

Track history (hours):
 
Tides and Currents Weather Stations Pressure Air Temp Water Temp Dewpoint Dewpoint Depression Visibility Wind Speed Wind Dir Waves Ship Positions

Delta Hellas

Last reported at 2018-Jan-08 04:02 UTC. Time now 2018-Feb-26 01:56 UTC.
Position S 39°12' E 146°04'.
Warning: this ship's position is 48 days out of date.

Length 276 m; draft 9 m.

Type: Tanker. MMSI: 240820000.

Date/timePositionNaut miles runAvg speedWind from/ knotsBaromVisibWave heightAir tempDewpointWater temp
2018-Jan-08 04:02S 39°12' E 146°04'0 9.4
2018-Jan-08 04:00S 39°12' E 146°04'2510.7
2018-Jan-08 01:42S 39°08' E 146°35'1011.3
2018-Jan-08 00:51S 39°05' E 146°47'410.9
2018-Jan-08 00:27S 39°04' E 146°53'510.7
2018-Jan-07 23:59S 39°02' E 146°59'510.4
2018-Jan-07 23:30S 39°00' E 147°05'710.2
2018-Jan-07 22:46S 38°58' E 147°14'3 9.9
2018-Jan-07 22:29S 38°57' E 147°17'5 9.9
2018-Jan-07 22:00S 38°55' E 147°23'510.0
2018-Jan-07 21:30S 38°54' E 147°29'510.1
2018-Jan-07 21:00S 38°52' E 147°36'510.1
2018-Jan-07 20:30S 38°51' E 147°42'510.6
2018-Jan-07 19:59S 38°49' E 147°48'510.6
2018-Jan-07 19:29S 38°47' E 147°55'510.5
2018-Jan-07 19:00S 38°46' E 148°01'510.9
2018-Jan-07 18:31S 38°44' E 148°08'510.7
2018-Jan-07 18:00S 38°42' E 148°14'611.0
2018-Jan-07 17:29S 38°40' E 148°21'611.1
2018-Jan-07 17:00S 38°37' E 148°27'510.9
2018-Jan-07 16:29S 38°35' E 148°33'510.8
2018-Jan-07 16:00S 38°32' E 148°39'510.6
2018-Jan-07 15:30S 38°30' E 148°45'610.6
2018-Jan-07 14:59S 38°27' E 148°51'510.6
2018-Jan-07 14:30S 38°25' E 148°57'610.9
2018-Jan-07 13:55S 38°22' E 149°04'510.9
2018-Jan-07 13:28S 38°20' E 149°10'511.0
2018-Jan-07 12:59S 38°17' E 149°16'711.1
2018-Jan-07 12:23S 38°14' E 149°23'510.7
2018-Jan-07 11:55S 38°12' E 149°29'610.9
2018-Jan-07 11:23S 38°09' E 149°36'610.7
2018-Jan-07 10:47S 38°06' E 149°43'410.9
2018-Jan-07 10:22S 38°04' E 149°48'511.0
2018-Jan-07 09:56S 38°02' E 149°53'510.8
2018-Jan-07 09:26S 37°60' E 149°59'511.4
2018-Jan-07 08:58S 37°57' E 150°05'511.0
2018-Jan-07 08:30S 37°55' E 150°11'811.1
2018-Jan-07 07:46S 37°51' E 150°20'310.7
2018-Jan-07 07:30S 37°49' E 150°23'611.3
2018-Jan-07 06:59S 37°44' E 150°26'910.9
2018-Jan-07 06:11S 37°36' E 150°30'10110.4
2018-Jan-06 20:27S 36°03' E 151°18'711.1
2018-Jan-06 19:52S 35°57' E 151°21'411.1
2018-Jan-06 19:29S 35°53' E 151°23'511.1
2018-Jan-06 19:00S 35°48' E 151°25'511.0
2018-Jan-06 18:30S 35°43' E 151°28'611.4
2018-Jan-06 18:00S 35°37' E 151°31'611.9
2018-Jan-06 17:30S 35°32' E 151°33'611.9
2018-Jan-06 17:00S 35°26' E 151°36'3011.5
2018-Jan-06 14:24S 34°58' E 151°50'411.1
2018-Jan-06 14:00S 34°54' E 151°52'611.0
2018-Jan-06 13:27S 34°49' E 151°54'510.9
2018-Jan-06 13:00S 34°44' E 151°57'1010.8
2018-Jan-06 12:06S 34°35' E 152°01'110.8
2018-Jan-06 11:58S 34°34' E 152°02'511.0
2018-Jan-06 11:29S 34°29' E 152°05'511.0
2018-Jan-06 11:01S 34°24' E 152°07'610.9
2018-Jan-06 10:30S 34°19' E 152°10'510.9
2018-Jan-06 10:00S 34°14' E 152°12'510.9
2018-Jan-06 09:30S 34°09' E 152°14'510.8
2018-Jan-06 09:00S 34°04' E 152°17'510.9
2018-Jan-06 08:30S 33°59' E 152°19'510.7
2018-Jan-06 08:00S 33°54' E 152°22'510.8
2018-Jan-06 07:30S 33°49' E 152°25'511.0
2018-Jan-06 07:00S 33°44' E 152°27'611.1
2018-Jan-06 06:31S 33°39' E 152°30'611.1
2018-Jan-06 06:00S 33°34' E 152°32'510.6
2018-Jan-06 05:30S 33°29' E 152°34'510.9
2018-Jan-06 05:00S 33°24' E 152°37'611.9
2018-Jan-06 04:31S 33°19' E 152°40'612.1
2018-Jan-06 04:01S 33°13' E 152°42'712.1
2018-Jan-06 03:24S 33°06' E 152°45'511.6
2018-Jan-06 03:00S 33°02' E 152°48'611.8
2018-Jan-06 02:30S 32°56' E 152°50'1111.5
2018-Jan-06 01:35S 32°47' E 152°55'111.4
2018-Jan-06 01:30S 32°46' E 152°55'611.1
2018-Jan-06 01:00S 32°41' E 152°58'611.4
2018-Jan-06 00:31S 32°35' E 153°00'611.4
2018-Jan-06 00:01S 32°30' E 153°03'611.2
2018-Jan-05 23:30S 32°25' E 153°05'611.2
2018-Jan-05 23:01S 32°19' E 153°07'611.1
2018-Jan-05 22:30S 32°14' E 153°09'611.0
2018-Jan-05 22:00S 32°09' E 153°11'611.1
2018-Jan-05 21:30S 32°03' E 153°13'611.1
2018-Jan-05 21:00S 31°58' E 153°15'611.1
2018-Jan-05 20:30S 31°53' E 153°17'511.1
2018-Jan-05 20:00S 31°48' E 153°19'611.1
2018-Jan-05 19:30S 31°42' E 153°21'611.1
2018-Jan-05 18:56S 31°36' E 153°23'510.9
2018-Jan-05 18:30S 31°32' E 153°25'611.0
2018-Jan-05 18:00S 31°27' E 153°27'911.2
2018-Jan-05 17:14S 31°18' E 153°30'17110.9
2018-Jan-05 01:38S 28°31' E 154°09'210.7
2018-Jan-05 01:29S 28°29' E 154°09'810.6
2018-Jan-05 00:42S 28°21' E 154°09'310.7
2018-Jan-05 00:23S 28°18' E 154°08'410.9
2018-Jan-05 00:00S 28°14' E 154°08'510.9
2018-Jan-04 23:31S 28°08' E 154°07'610.9
2018-Jan-04 23:00S 28°03' E 154°07'610.9
2018-Jan-04 22:29S 27°57' E 154°06'510.9
2018-Jan-04 22:00S 27°52' E 154°06'510.6
2018-Jan-04 21:30S 27°47' E 154°05'76 7.7
2018-Jan-04 11:35S 26°50' E 153°09'2113.1
2018-Jan-04 10:00S 27°07' E 153°21'712.8
2018-Jan-04 09:28S 27°14' E 153°20'714.6
2018-Jan-04 08:59S 27°18' E 153°13'611.9
2018-Jan-04 08:30S 27°23' E 153°10'  
2018-Jan-02 00:11S 27°22' E 153°10'2 5.6
2018-Jan-01 23:53S 27°21' E 153°11'5 9.7
2018-Jan-01 23:25S 27°17' E 153°14'810.8
2018-Jan-01 22:41S 27°12' E 153°20'312.8
2018-Jan-01 22:27S 27°09' E 153°21'711.7
2018-Jan-01 21:51S 27°03' E 153°17'411.3
2018-Jan-01 21:29S 26°60' E 153°14'93 3.8
2017-Dec-31 20:46S 28°19' E 154°08'312.0
2017-Dec-31 20:30S 28°22' E 154°09'25911.9
2017-Dec-30 22:38S 32°35' E 153°00'111.1
2017-Dec-30 22:30S 32°36' E 152°60'511.0
2017-Dec-30 22:00S 32°42' E 152°57'1610.2
2017-Dec-30 20:29S 32°56' E 152°51'5 9.7
2017-Dec-30 20:00S 33°00' E 152°49'610.5
2017-Dec-30 19:26S 33°06' E 152°45'2711.5
2017-Dec-30 17:06S 33°31' E 152°34'33011.5
2017-Dec-29 12:34S 38°19' E 149°17'112.4
2017-Dec-29 12:29S 38°20' E 149°16'  
Track history (hours):
 
Tides and Currents Weather Stations Pressure Air Temp Water Temp Dewpoint Dewpoint Depression Visibility Wind Speed Wind Dir Waves Ship Positions

Delta Hellas

Last reported at 2018-Jan-08 04:02 UTC. Time now 2018-Feb-26 01:56 UTC.
Position S 39°12' E 146°04'.
Warning: this ship's position is 48 days out of date.

Length 276 m; draft 9 m.

Type: Tanker. MMSI: 240820000.

Date/timePositionNaut miles runAvg speedWind from/ knotsBaromVisibWave heightAir tempDewpointWater temp
2018-Jan-08 04:02S 39°12' E 146°04'0 9.4
2018-Jan-08 04:00S 39°12' E 146°04'2510.7
2018-Jan-08 01:42S 39°08' E 146°35'1011.3
2018-Jan-08 00:51S 39°05' E 146°47'410.9
2018-Jan-08 00:27S 39°04' E 146°53'510.7
2018-Jan-07 23:59S 39°02' E 146°59'510.4
2018-Jan-07 23:30S 39°00' E 147°05'710.2
2018-Jan-07 22:46S 38°58' E 147°14'3 9.9
2018-Jan-07 22:29S 38°57' E 147°17'5 9.9
2018-Jan-07 22:00S 38°55' E 147°23'510.0
2018-Jan-07 21:30S 38°54' E 147°29'510.1
2018-Jan-07 21:00S 38°52' E 147°36'510.1
2018-Jan-07 20:30S 38°51' E 147°42'510.6
2018-Jan-07 19:59S 38°49' E 147°48'510.6
2018-Jan-07 19:29S 38°47' E 147°55'510.5
2018-Jan-07 19:00S 38°46' E 148°01'510.9
2018-Jan-07 18:31S 38°44' E 148°08'510.7
2018-Jan-07 18:00S 38°42' E 148°14'611.0
2018-Jan-07 17:29S 38°40' E 148°21'611.1
2018-Jan-07 17:00S 38°37' E 148°27'510.9
2018-Jan-07 16:29S 38°35' E 148°33'510.8
2018-Jan-07 16:00S 38°32' E 148°39'510.6
2018-Jan-07 15:30S 38°30' E 148°45'610.6
2018-Jan-07 14:59S 38°27' E 148°51'510.6
2018-Jan-07 14:30S 38°25' E 148°57'610.9
2018-Jan-07 13:55S 38°22' E 149°04'510.9
2018-Jan-07 13:28S 38°20' E 149°10'511.0
2018-Jan-07 12:59S 38°17' E 149°16'711.1
2018-Jan-07 12:23S 38°14' E 149°23'510.7
2018-Jan-07 11:55S 38°12' E 149°29'610.9
2018-Jan-07 11:23S 38°09' E 149°36'610.7
2018-Jan-07 10:47S 38°06' E 149°43'410.9
2018-Jan-07 10:22S 38°04' E 149°48'511.0
2018-Jan-07 09:56S 38°02' E 149°53'510.8
2018-Jan-07 09:26S 37°60' E 149°59'511.4
2018-Jan-07 08:58S 37°57' E 150°05'511.0
2018-Jan-07 08:30S 37°55' E 150°11'811.1
2018-Jan-07 07:46S 37°51' E 150°20'310.7
2018-Jan-07 07:30S 37°49' E 150°23'611.3
2018-Jan-07 06:59S 37°44' E 150°26'910.9
2018-Jan-07 06:11S 37°36' E 150°30'10110.4
2018-Jan-06 20:27S 36°03' E 151°18'711.1
2018-Jan-06 19:52S 35°57' E 151°21'411.1
2018-Jan-06 19:29S 35°53' E 151°23'511.1
2018-Jan-06 19:00S 35°48' E 151°25'511.0
2018-Jan-06 18:30S 35°43' E 151°28'611.4
2018-Jan-06 18:00S 35°37' E 151°31'611.9
2018-Jan-06 17:30S 35°32' E 151°33'611.9
2018-Jan-06 17:00S 35°26' E 151°36'3011.5
2018-Jan-06 14:24S 34°58' E 151°50'411.1
2018-Jan-06 14:00S 34°54' E 151°52'611.0
2018-Jan-06 13:27S 34°49' E 151°54'510.9
2018-Jan-06 13:00S 34°44' E 151°57'1010.8
2018-Jan-06 12:06S 34°35' E 152°01'110.8
2018-Jan-06 11:58S 34°34' E 152°02'511.0
2018-Jan-06 11:29S 34°29' E 152°05'511.0
2018-Jan-06 11:01S 34°24' E 152°07'610.9
2018-Jan-06 10:30S 34°19' E 152°10'510.9
2018-Jan-06 10:00S 34°14' E 152°12'510.9
2018-Jan-06 09:30S 34°09' E 152°14'510.8
2018-Jan-06 09:00S 34°04' E 152°17'510.9
2018-Jan-06 08:30S 33°59' E 152°19'510.7
2018-Jan-06 08:00S 33°54' E 152°22'510.8
2018-Jan-06 07:30S 33°49' E 152°25'511.0
2018-Jan-06 07:00S 33°44' E 152°27'611.1
2018-Jan-06 06:31S 33°39' E 152°30'611.1
2018-Jan-06 06:00S 33°34' E 152°32'510.6
2018-Jan-06 05:30S 33°29' E 152°34'510.9
2018-Jan-06 05:00S 33°24' E 152°37'611.9
2018-Jan-06 04:31S 33°19' E 152°40'612.1
2018-Jan-06 04:01S 33°13' E 152°42'712.1
2018-Jan-06 03:24S 33°06' E 152°45'511.6
2018-Jan-06 03:00S 33°02' E 152°48'611.8
2018-Jan-06 02:30S 32°56' E 152°50'1111.5
2018-Jan-06 01:35S 32°47' E 152°55'111.4
2018-Jan-06 01:30S 32°46' E 152°55'611.1
2018-Jan-06 01:00S 32°41' E 152°58'611.4
2018-Jan-06 00:31S 32°35' E 153°00'611.4
2018-Jan-06 00:01S 32°30' E 153°03'611.2
2018-Jan-05 23:30S 32°25' E 153°05'611.2
2018-Jan-05 23:01S 32°19' E 153°07'611.1
2018-Jan-05 22:30S 32°14' E 153°09'611.0
2018-Jan-05 22:00S 32°09' E 153°11'611.1
2018-Jan-05 21:30S 32°03' E 153°13'611.1
2018-Jan-05 21:00S 31°58' E 153°15'611.1
2018-Jan-05 20:30S 31°53' E 153°17'511.1
2018-Jan-05 20:00S 31°48' E 153°19'611.1
2018-Jan-05 19:30S 31°42' E 153°21'611.1
2018-Jan-05 18:56S 31°36' E 153°23'510.9
2018-Jan-05 18:30S 31°32' E 153°25'611.0
2018-Jan-05 18:00S 31°27' E 153°27'911.2
2018-Jan-05 17:14S 31°18' E 153°30'17110.9
2018-Jan-05 01:38S 28°31' E 154°09'210.7
2018-Jan-05 01:29S 28°29' E 154°09'810.6
2018-Jan-05 00:42S 28°21' E 154°09'310.7
2018-Jan-05 00:23S 28°18' E 154°08'410.9
2018-Jan-05 00:00S 28°14' E 154°08'510.9
2018-Jan-04 23:31S 28°08' E 154°07'610.9
2018-Jan-04 23:00S 28°03' E 154°07'610.9
2018-Jan-04 22:29S 27°57' E 154°06'510.9
2018-Jan-04 22:00S 27°52' E 154°06'510.6
2018-Jan-04 21:30S 27°47' E 154°05'76 7.7
2018-Jan-04 11:35S 26°50' E 153°09'2113.1
2018-Jan-04 10:00S 27°07' E 153°21'712.8
2018-Jan-04 09:28S 27°14' E 153°20'714.6
2018-Jan-04 08:59S 27°18' E 153°13'611.9
2018-Jan-04 08:30S 27°23' E 153°10'  
2018-Jan-02 00:11S 27°22' E 153°10'2 5.6
2018-Jan-01 23:53S 27°21' E 153°11'5 9.7
2018-Jan-01 23:25S 27°17' E 153°14'810.8
2018-Jan-01 22:41S 27°12' E 153°20'312.8
2018-Jan-01 22:27S 27°09' E 153°21'711.7
2018-Jan-01 21:51S 27°03' E 153°17'411.3
2018-Jan-01 21:29S 26°60' E 153°14'93 3.8
2017-Dec-31 20:46S 28°19' E 154°08'312.0
2017-Dec-31 20:30S 28°22' E 154°09'25911.9
2017-Dec-30 22:38S 32°35' E 153°00'111.1
2017-Dec-30 22:30S 32°36' E 152°60'511.0
2017-Dec-30 22:00S 32°42' E 152°57'1610.2
2017-Dec-30 20:29S 32°56' E 152°51'5 9.7
2017-Dec-30 20:00S 33°00' E 152°49'610.5
2017-Dec-30 19:26S 33°06' E 152°45'2711.5
2017-Dec-30 17:06S 33°31' E 152°34'33011.5
2017-Dec-29 12:34S 38°19' E 149°17'112.4
2017-Dec-29 12:29S 38°20' E 149°16'  

Dump ship's entire track history